RUK9845 LEXJ-EGCC
Flight info
| Callsign | RUK9845 |
|---|---|
| Flight time | 1h 41m |
| Altitude | 20000 |
| Route | VADOX N864 DELOG/N0432F360 DCT NOVAN DCT TERKU DCT NOZHU/N0431F370 DCT SHIRI DCT TOJAQ DCT EPACE DCT ACCOP/N0356F240 P16 AXCIS |
| Aircraft | B738/M-SDE2E3FGHIRWXY/LB1 |
Departure
| Time | 2026-04-24 02:08 |
|---|---|
| Airport | Seve Ballesteros-Santander Airport (LEXJ) |
Arrival
| Time | 2026-04-24 03:50 |
|---|---|
| Airport | Manchester Airport (EGCC) |
| Time | Latitude | Longitude | Altitude | Speed | Heading |
|---|---|---|---|---|---|
| 2026-04-24 01:38 | 43.42384 | -3.82294 | 15 ft | 0 kts | 234° |
| 2026-04-24 01:59 | 43.42384 | -3.82293 | 15 ft | 1 kts | 235° |
| 2026-04-24 02:00 | 43.42390 | -3.82282 | 15 ft | 1 kts | 235° |
| 2026-04-24 02:00 | 43.42402 | -3.82269 | 15 ft | 2 kts | 192° |
| 2026-04-24 02:00 | 43.42417 | -3.82270 | 14 ft | 2 kts | 153° |
| 2026-04-24 02:00 | 43.42428 | -3.82284 | 14 ft | 1 kts | 115° |
| 2026-04-24 02:01 | 43.42430 | -3.82292 | 14 ft | 1 kts | 107° |
| 2026-04-24 02:01 | 43.42431 | -3.82295 | 14 ft | 0 kts | 109° |
| 2026-04-24 02:04 | 43.42426 | -3.82277 | 14 ft | 4 kts | 109° |
| 2026-04-24 02:04 | 43.42410 | -3.82213 | 14 ft | 9 kts | 111° |
| 2026-04-24 02:04 | 43.42393 | -3.82126 | 13 ft | 7 kts | 65° |
| 2026-04-24 02:05 | 43.42444 | -3.82085 | 10 ft | 9 kts | 20° |
| 2026-04-24 02:05 | 43.42520 | -3.82049 | 9 ft | 11 kts | 25° |
| 2026-04-24 02:05 | 43.42533 | -3.81990 | 9 ft | 6 kts | 104° |
| 2026-04-24 02:05 | 43.42512 | -3.81909 | 9 ft | 11 kts | 110° |
| 2026-04-24 02:06 | 43.42478 | -3.81775 | 10 ft | 17 kts | 109° |
| 2026-04-24 02:06 | 43.42432 | -3.81599 | 11 ft | 19 kts | 112° |
| 2026-04-24 02:06 | 43.42392 | -3.81460 | 14 ft | 12 kts | 110° |
| 2026-04-24 02:06 | 43.42381 | -3.81370 | 14 ft | 6 kts | 68° |
| 2026-04-24 02:07 | 43.42404 | -3.81336 | 14 ft | 5 kts | 28° |
| 2026-04-24 02:07 | 43.42452 | -3.81310 | 13 ft | 8 kts | 20° |
| 2026-04-24 02:07 | 43.42503 | -3.81291 | 12 ft | 4 kts | 354° |
| 2026-04-24 02:07 | 43.42515 | -3.81305 | 13 ft | 0 kts | 302° |
| 2026-04-24 02:08 | 43.42571 | -3.81494 | 11 ft | 57 kts | 291° |
| 2026-04-24 02:08 | 43.42798 | -3.82347 | 9 ft | 126 kts | 290° |
| 2026-04-24 02:08 | 43.43162 | -3.83723 | 231 ft | 159 kts | 290° |
| 2026-04-24 02:08 | 43.43571 | -3.85195 | 790 ft | 167 kts | 292° |
| 2026-04-24 02:09 | 43.44010 | -3.86742 | 1485 ft | 169 kts | 291° |
| 2026-04-24 02:09 | 43.44421 | -3.88259 | 2081 ft | 170 kts | 293° |
| 2026-04-24 02:09 | 43.45083 | -3.89760 | 2287 ft | 191 kts | 321° |
| 2026-04-24 02:09 | 43.46402 | -3.90464 | 2543 ft | 208 kts | 0° |
| 2026-04-24 02:10 | 43.47915 | -3.90540 | 3088 ft | 220 kts | 359° |
| 2026-04-24 02:10 | 43.49515 | -3.90680 | 3598 ft | 235 kts | 358° |
| 2026-04-24 02:10 | 43.51260 | -3.90817 | 3883 ft | 260 kts | 358° |
| 2026-04-24 02:10 | 43.53163 | -3.90966 | 4479 ft | 270 kts | 357° |
| 2026-04-24 02:11 | 43.55113 | -3.91139 | 5197 ft | 276 kts | 356° |
| 2026-04-24 02:11 | 43.57056 | -3.91326 | 6005 ft | 277 kts | 356° |
| 2026-04-24 02:11 | 43.59035 | -3.91527 | 6783 ft | 280 kts | 356° |
| 2026-04-24 02:11 | 43.61038 | -3.91735 | 7571 ft | 283 kts | 355° |
| 2026-04-24 02:12 | 43.63044 | -3.91944 | 8358 ft | 285 kts | 355° |
| 2026-04-24 02:12 | 43.65084 | -3.92151 | 9133 ft | 288 kts | 355° |
| 2026-04-24 02:12 | 43.67115 | -3.92343 | 9868 ft | 292 kts | 356° |
| 2026-04-24 02:12 | 43.69216 | -3.92510 | 10397 ft | 305 kts | 356° |
| 2026-04-24 02:13 | 43.71512 | -3.92674 | 10610 ft | 329 kts | 356° |
| 2026-04-24 02:13 | 43.73909 | -3.92845 | 11129 ft | 340 kts | 356° |
| 2026-04-24 02:13 | 43.76335 | -3.93004 | 11775 ft | 347 kts | 356° |
| 2026-04-24 02:13 | 43.78837 | -3.93153 | 12502 ft | 352 kts | 356° |
| 2026-04-24 02:14 | 43.81330 | -3.93313 | 13209 ft | 356 kts | 355° |
| 2026-04-24 02:14 | 43.83882 | -3.93507 | 13918 ft | 361 kts | 355° |
| 2026-04-24 02:14 | 43.86488 | -3.93733 | 14645 ft | 366 kts | 354° |
| 2026-04-24 02:14 | 43.89101 | -3.93985 | 15367 ft | 370 kts | 354° |
| 2026-04-24 02:15 | 43.91733 | -3.94265 | 16076 ft | 375 kts | 353° |
| 2026-04-24 02:15 | 43.94415 | -3.94574 | 16765 ft | 379 kts | 353° |
| 2026-04-24 02:15 | 43.97144 | -3.94912 | 17410 ft | 384 kts | 353° |
| 2026-04-24 02:15 | 43.99842 | -3.95265 | 18058 ft | 388 kts | 353° |
| 2026-04-24 02:16 | 44.02605 | -3.95639 | 18706 ft | 392 kts | 353° |
| 2026-04-24 02:16 | 44.05402 | -3.96023 | 19328 ft | 397 kts | 353° |
| 2026-04-24 02:16 | 44.08232 | -3.96409 | 19927 ft | 401 kts | 353° |
| 2026-04-24 02:16 | 44.11092 | -3.96793 | 20532 ft | 405 kts | 353° |
| 2026-04-24 02:17 | 44.13971 | -3.97159 | 21095 ft | 409 kts | 354° |
| 2026-04-24 02:17 | 44.16901 | -3.97504 | 21658 ft | 413 kts | 354° |
| 2026-04-24 02:17 | 44.19851 | -3.97814 | 22216 ft | 417 kts | 355° |
| 2026-04-24 02:17 | 44.22803 | -3.98085 | 22756 ft | 420 kts | 355° |
| 2026-04-24 02:18 | 44.25805 | -3.98327 | 23279 ft | 424 kts | 356° |
| 2026-04-24 02:18 | 44.28840 | -3.98557 | 23753 ft | 428 kts | 356° |
| 2026-04-24 02:18 | 44.31903 | -3.98701 | 24266 ft | 432 kts | 1° |
| 2026-04-24 02:18 | 44.34952 | -3.98425 | 24764 ft | 434 kts | 5° |
| 2026-04-24 02:19 | 44.38050 | -3.98009 | 25268 ft | 437 kts | 5° |
| 2026-04-24 02:19 | 44.41154 | -3.97579 | 25732 ft | 440 kts | 5° |
| 2026-04-24 02:19 | 44.44270 | -3.97144 | 26196 ft | 443 kts | 5° |
| 2026-04-24 02:19 | 44.47424 | -3.96704 | 26670 ft | 445 kts | 5° |
| 2026-04-24 02:20 | 44.50567 | -3.96264 | 27110 ft | 448 kts | 5° |
| 2026-04-24 02:20 | 44.53769 | -3.95815 | 27539 ft | 451 kts | 5° |
| 2026-04-24 02:20 | 44.56963 | -3.95366 | 27973 ft | 453 kts | 5° |
| 2026-04-24 02:20 | 44.60160 | -3.94917 | 28389 ft | 455 kts | 5° |
| 2026-04-24 02:21 | 44.63404 | -3.94460 | 28795 ft | 458 kts | 5° |
| 2026-04-24 02:21 | 44.66694 | -3.93995 | 29193 ft | 460 kts | 5° |
| 2026-04-24 02:21 | 44.69936 | -3.93537 | 29584 ft | 462 kts | 5° |
| 2026-04-24 02:21 | 44.73228 | -3.93072 | 30046 ft | 463 kts | 5° |
| 2026-04-24 02:22 | 44.76503 | -3.92609 | 30522 ft | 462 kts | 5° |
| 2026-04-24 02:22 | 44.79759 | -3.92148 | 30986 ft | 461 kts | 5° |
| 2026-04-24 02:22 | 44.83021 | -3.91685 | 31436 ft | 461 kts | 5° |
| 2026-04-24 02:22 | 44.86294 | -3.91221 | 31940 ft | 459 kts | 5° |
| 2026-04-24 02:23 | 44.89510 | -3.90763 | 32363 ft | 459 kts | 5° |
| 2026-04-24 02:23 | 44.92763 | -3.90299 | 32803 ft | 458 kts | 5° |
| 2026-04-24 02:23 | 44.95998 | -3.89838 | 33236 ft | 457 kts | 5° |
| 2026-04-24 02:23 | 44.99253 | -3.89372 | 33640 ft | 457 kts | 5° |
| 2026-04-24 02:24 | 45.02468 | -3.88912 | 34042 ft | 456 kts | 5° |
| 2026-04-24 02:24 | 45.05691 | -3.88450 | 34449 ft | 455 kts | 5° |
| 2026-04-24 02:24 | 45.08922 | -3.87987 | 34846 ft | 455 kts | 5° |
| 2026-04-24 02:24 | 45.12161 | -3.87522 | 35228 ft | 454 kts | 5° |
| 2026-04-24 02:25 | 45.15374 | -3.87060 | 35568 ft | 454 kts | 5° |
| 2026-04-24 02:25 | 45.18545 | -3.86604 | 35966 ft | 452 kts | 5° |
| 2026-04-24 02:25 | 45.25001 | -3.85675 | 36040 ft | 454 kts | 5° |
| 2026-04-24 02:26 | 45.31416 | -3.84749 | 36319 ft | 454 kts | 4° |
| 2026-04-24 02:26 | 45.34576 | -3.84292 | 36121 ft | 450 kts | 4° |
| 2026-04-24 02:26 | 45.37725 | -3.83835 | 36039 ft | 441 kts | 4° |
| 2026-04-24 02:27 | 45.44011 | -3.82925 | 36057 ft | 448 kts | 4° |
| 2026-04-24 02:27 | 45.50425 | -3.81994 | 36059 ft | 453 kts | 4° |
| 2026-04-24 02:28 | 45.56801 | -3.81064 | 36071 ft | 451 kts | 4° |
| 2026-04-24 02:28 | 45.63174 | -3.80134 | 36080 ft | 450 kts | 4° |
| 2026-04-24 02:29 | 45.69568 | -3.79199 | 36080 ft | 451 kts | 4° |
| 2026-04-24 02:29 | 45.75914 | -3.78268 | 36080 ft | 451 kts | 4° |
| 2026-04-24 02:30 | 45.82316 | -3.77327 | 36080 ft | 451 kts | 4° |
| 2026-04-24 02:30 | 45.88703 | -3.76385 | 36080 ft | 451 kts | 4° |
| 2026-04-24 02:31 | 45.95095 | -3.75441 | 36080 ft | 451 kts | 4° |
| 2026-04-24 02:31 | 46.01421 | -3.74505 | 36081 ft | 450 kts | 4° |
| 2026-04-24 02:32 | 46.07802 | -3.73558 | 36080 ft | 449 kts | 4° |
| 2026-04-24 02:32 | 46.14185 | -3.72609 | 36088 ft | 449 kts | 4° |
| 2026-04-24 02:33 | 46.20549 | -3.71659 | 36099 ft | 449 kts | 4° |
| 2026-04-24 02:33 | 46.26909 | -3.70708 | 36107 ft | 449 kts | 4° |
| 2026-04-24 02:34 | 46.33266 | -3.69789 | 36106 ft | 448 kts | 2° |
| 2026-04-24 02:34 | 46.39637 | -3.69459 | 36107 ft | 447 kts | 360° |
| 2026-04-24 02:35 | 46.45957 | -3.69213 | 36107 ft | 446 kts | 360° |
| 2026-04-24 02:35 | 46.52314 | -3.68940 | 36107 ft | 446 kts | 360° |
| 2026-04-24 02:36 | 46.58628 | -3.68655 | 36107 ft | 445 kts | 0° |
| 2026-04-24 02:36 | 46.64956 | -3.68365 | 36107 ft | 444 kts | 0° |
| 2026-04-24 02:37 | 46.71292 | -3.68067 | 36107 ft | 443 kts | 360° |
| 2026-04-24 02:37 | 46.77560 | -3.67773 | 36114 ft | 442 kts | 360° |
| 2026-04-24 02:38 | 46.83869 | -3.67473 | 36124 ft | 442 kts | 360° |
| 2026-04-24 02:38 | 46.90144 | -3.67175 | 36134 ft | 441 kts | 360° |
| 2026-04-24 02:39 | 46.96439 | -3.66875 | 36134 ft | 440 kts | 360° |
| 2026-04-24 02:39 | 47.02710 | -3.66573 | 36134 ft | 439 kts | 0° |
| 2026-04-24 02:40 | 47.08960 | -3.66273 | 36134 ft | 439 kts | 360° |
| 2026-04-24 02:40 | 47.15220 | -3.65971 | 36134 ft | 439 kts | 360° |
| 2026-04-24 02:41 | 47.21444 | -3.65670 | 36134 ft | 439 kts | 360° |
| 2026-04-24 02:41 | 47.27676 | -3.65368 | 36134 ft | 438 kts | 360° |
| 2026-04-24 02:42 | 47.33906 | -3.65069 | 36133 ft | 438 kts | 360° |
| 2026-04-24 02:42 | 47.40131 | -3.64765 | 36134 ft | 437 kts | 360° |
| 2026-04-24 02:43 | 47.46347 | -3.64462 | 36134 ft | 438 kts | 360° |
| 2026-04-24 02:43 | 47.52558 | -3.64158 | 36134 ft | 438 kts | 360° |
| 2026-04-24 02:44 | 47.58740 | -3.63856 | 36134 ft | 437 kts | 0° |
| 2026-04-24 02:44 | 47.64920 | -3.63553 | 36134 ft | 436 kts | 0° |
| 2026-04-24 02:45 | 47.71147 | -3.63246 | 36134 ft | 437 kts | 0° |
| 2026-04-24 02:45 | 47.77343 | -3.62940 | 36134 ft | 437 kts | 0° |
| 2026-04-24 02:46 | 47.83534 | -3.62633 | 36134 ft | 437 kts | 0° |
| 2026-04-24 02:46 | 47.89767 | -3.62324 | 36141 ft | 437 kts | 0° |
| 2026-04-24 02:47 | 47.95961 | -3.62016 | 36152 ft | 437 kts | 0° |
| 2026-04-24 02:47 | 48.02185 | -3.61714 | 36161 ft | 436 kts | 359° |
| 2026-04-24 02:48 | 48.08351 | -3.62069 | 36161 ft | 434 kts | 354° |
| 2026-04-24 02:48 | 48.14537 | -3.62628 | 36161 ft | 434 kts | 354° |
| 2026-04-24 02:49 | 48.20694 | -3.63176 | 36161 ft | 434 kts | 354° |
| 2026-04-24 02:49 | 48.26867 | -3.63719 | 36161 ft | 434 kts | 354° |
| 2026-04-24 02:50 | 48.33028 | -3.64258 | 36161 ft | 434 kts | 354° |
| 2026-04-24 02:50 | 48.39178 | -3.64795 | 36161 ft | 434 kts | 354° |
| 2026-04-24 02:51 | 48.45343 | -3.65334 | 36161 ft | 433 kts | 354° |
| 2026-04-24 02:51 | 48.51500 | -3.65874 | 36164 ft | 433 kts | 354° |
| 2026-04-24 02:52 | 48.57616 | -3.66410 | 36175 ft | 432 kts | 354° |
| 2026-04-24 02:52 | 48.63763 | -3.66954 | 36185 ft | 432 kts | 355° |
| 2026-04-24 02:53 | 48.69932 | -3.67497 | 36188 ft | 432 kts | 355° |
| 2026-04-24 02:53 | 48.76082 | -3.68039 | 36188 ft | 431 kts | 354° |
| 2026-04-24 02:54 | 48.82198 | -3.68581 | 36188 ft | 431 kts | 354° |
| 2026-04-24 02:54 | 48.88320 | -3.69124 | 36188 ft | 431 kts | 354° |
| 2026-04-24 02:55 | 48.94470 | -3.69672 | 36188 ft | 430 kts | 354° |
| 2026-04-24 02:55 | 49.00589 | -3.70218 | 36188 ft | 430 kts | 354° |
| 2026-04-24 02:56 | 49.06653 | -3.70760 | 36188 ft | 430 kts | 354° |
| 2026-04-24 02:56 | 49.12711 | -3.71303 | 36188 ft | 429 kts | 354° |
| 2026-04-24 02:57 | 49.18762 | -3.71847 | 36206 ft | 429 kts | 354° |
| 2026-04-24 02:57 | 49.24784 | -3.72390 | 36226 ft | 429 kts | 354° |
| 2026-04-24 02:58 | 49.30802 | -3.72937 | 36243 ft | 429 kts | 355° |
| 2026-04-24 02:58 | 49.36852 | -3.73484 | 36242 ft | 429 kts | 355° |
| 2026-04-24 02:59 | 49.42867 | -3.74028 | 36242 ft | 429 kts | 355° |
| 2026-04-24 02:59 | 49.48875 | -3.74574 | 36242 ft | 429 kts | 355° |
| 2026-04-24 03:00 | 49.54933 | -3.75127 | 36242 ft | 429 kts | 355° |
| 2026-04-24 03:00 | 49.60932 | -3.75675 | 36242 ft | 429 kts | 355° |
| 2026-04-24 03:01 | 49.67005 | -3.76232 | 36242 ft | 429 kts | 355° |
| 2026-04-24 03:01 | 49.73107 | -3.76013 | 36243 ft | 430 kts | 2° |
| 2026-04-24 03:02 | 49.76199 | -3.75660 | 36414 ft | 432 kts | 2° |
| 2026-04-24 03:02 | 49.79229 | -3.75305 | 36724 ft | 433 kts | 2° |
| 2026-04-24 03:02 | 49.82309 | -3.74943 | 36999 ft | 434 kts | 2° |
| 2026-04-24 03:02 | 49.85390 | -3.74581 | 37241 ft | 435 kts | 2° |
| 2026-04-24 03:03 | 49.91470 | -3.73864 | 37234 ft | 433 kts | 3° |
| 2026-04-24 03:03 | 49.97524 | -3.73144 | 37237 ft | 429 kts | 3° |
| 2026-04-24 03:04 | 50.03646 | -3.72415 | 37237 ft | 431 kts | 3° |
| 2026-04-24 03:04 | 50.09752 | -3.71687 | 37236 ft | 431 kts | 3° |
| 2026-04-24 03:05 | 50.15880 | -3.70954 | 37236 ft | 431 kts | 3° |
| 2026-04-24 03:05 | 50.21960 | -3.70225 | 37236 ft | 430 kts | 3° |
| 2026-04-24 03:06 | 50.28069 | -3.69491 | 37245 ft | 430 kts | 3° |
| 2026-04-24 03:06 | 50.34143 | -3.68758 | 37265 ft | 430 kts | 3° |
| 2026-04-24 03:07 | 50.40253 | -3.68020 | 37286 ft | 430 kts | 3° |
| 2026-04-24 03:07 | 50.46312 | -3.67023 | 37290 ft | 430 kts | 5° |
| 2026-04-24 03:08 | 50.55409 | -3.65249 | 37290 ft | 429 kts | 5° |
| 2026-04-24 03:09 | 50.61453 | -3.64082 | 37290 ft | 428 kts | 5° |
| 2026-04-24 03:09 | 50.67500 | -3.62919 | 37290 ft | 427 kts | 5° |
| 2026-04-24 03:10 | 50.73511 | -3.61764 | 37290 ft | 427 kts | 5° |
| 2026-04-24 03:10 | 50.79505 | -3.60611 | 37290 ft | 426 kts | 5° |
| 2026-04-24 03:11 | 50.85479 | -3.59460 | 37290 ft | 426 kts | 5° |
| 2026-04-24 03:11 | 50.91443 | -3.58309 | 37296 ft | 425 kts | 5° |
| 2026-04-24 03:12 | 50.97377 | -3.57160 | 37317 ft | 425 kts | 5° |
| 2026-04-24 03:12 | 51.03377 | -3.55996 | 37337 ft | 425 kts | 5° |
| 2026-04-24 03:13 | 51.09327 | -3.54836 | 37344 ft | 424 kts | 5° |
| 2026-04-24 03:13 | 51.15308 | -3.53670 | 37344 ft | 423 kts | 5° |
| 2026-04-24 03:14 | 51.21175 | -3.52524 | 37344 ft | 423 kts | 5° |
| 2026-04-24 03:14 | 51.27089 | -3.51365 | 37344 ft | 423 kts | 5° |
| 2026-04-24 03:15 | 51.33044 | -3.50195 | 37344 ft | 422 kts | 5° |
| 2026-04-24 03:15 | 51.38996 | -3.49022 | 37344 ft | 422 kts | 5° |
| 2026-04-24 03:16 | 51.44883 | -3.47859 | 37085 ft | 418 kts | 5° |
| 2026-04-24 03:16 | 51.47853 | -3.47270 | 36409 ft | 419 kts | 5° |
| 2026-04-24 03:16 | 51.50781 | -3.46682 | 35749 ft | 420 kts | 5° |
| 2026-04-24 03:16 | 51.53709 | -3.46094 | 35119 ft | 419 kts | 5° |
| 2026-04-24 03:17 | 51.56656 | -3.45510 | 34642 ft | 414 kts | 5° |
| 2026-04-24 03:17 | 51.59544 | -3.44935 | 34125 ft | 411 kts | 5° |
| 2026-04-24 03:17 | 51.62406 | -3.44367 | 33613 ft | 408 kts | 5° |
| 2026-04-24 03:17 | 51.65251 | -3.43803 | 33102 ft | 404 kts | 5° |
| 2026-04-24 03:18 | 51.68097 | -3.43238 | 32591 ft | 401 kts | 5° |
| 2026-04-24 03:18 | 51.70885 | -3.42683 | 32093 ft | 397 kts | 5° |
| 2026-04-24 03:18 | 51.73641 | -3.42134 | 31599 ft | 394 kts | 5° |
| 2026-04-24 03:18 | 51.76379 | -3.41588 | 31109 ft | 390 kts | 5° |
| 2026-04-24 03:19 | 51.79105 | -3.41042 | 30621 ft | 387 kts | 5° |
| 2026-04-24 03:19 | 51.81809 | -3.40499 | 30136 ft | 383 kts | 6° |
| 2026-04-24 03:19 | 51.84509 | -3.39957 | 29646 ft | 380 kts | 6° |
| 2026-04-24 03:19 | 51.87137 | -3.39428 | 29172 ft | 376 kts | 6° |
| 2026-04-24 03:20 | 51.89756 | -3.38901 | 28699 ft | 373 kts | 6° |
| 2026-04-24 03:20 | 51.92392 | -3.38370 | 28227 ft | 372 kts | 6° |
| 2026-04-24 03:20 | 51.95026 | -3.38003 | 27739 ft | 369 kts | 2° |
| 2026-04-24 03:20 | 51.97651 | -3.37828 | 27267 ft | 365 kts | 2° |
| 2026-04-24 03:21 | 52.00196 | -3.37675 | 26804 ft | 362 kts | 2° |
| 2026-04-24 03:21 | 52.02773 | -3.37521 | 26339 ft | 359 kts | 2° |
| 2026-04-24 03:21 | 52.05322 | -3.37355 | 25874 ft | 355 kts | 3° |
| 2026-04-24 03:21 | 52.07829 | -3.37181 | 25418 ft | 352 kts | 3° |
| 2026-04-24 03:22 | 52.10314 | -3.37005 | 24966 ft | 349 kts | 3° |
| 2026-04-24 03:22 | 52.12794 | -3.36828 | 24518 ft | 346 kts | 4° |
| 2026-04-24 03:22 | 52.15214 | -3.36655 | 24297 ft | 336 kts | 4° |
| 2026-04-24 03:22 | 52.17581 | -3.36483 | 24328 ft | 336 kts | 4° |
| 2026-04-24 03:23 | 52.19993 | -3.36304 | 24328 ft | 343 kts | 4° |
| 2026-04-24 03:23 | 52.22445 | -3.36123 | 24332 ft | 344 kts | 4° |
| 2026-04-24 03:23 | 52.24887 | -3.35944 | 24341 ft | 342 kts | 4° |
| 2026-04-24 03:23 | 52.27317 | -3.35767 | 24351 ft | 341 kts | 4° |
| 2026-04-24 03:24 | 52.29720 | -3.35589 | 24360 ft | 342 kts | 4° |
| 2026-04-24 03:24 | 52.32144 | -3.35412 | 24369 ft | 343 kts | 4° |
| 2026-04-24 03:24 | 52.34576 | -3.35234 | 24370 ft | 343 kts | 4° |
| 2026-04-24 03:24 | 52.37009 | -3.35056 | 24371 ft | 343 kts | 4° |
| 2026-04-24 03:25 | 52.39418 | -3.34879 | 24371 ft | 343 kts | 4° |
| 2026-04-24 03:25 | 52.41842 | -3.34700 | 24371 ft | 342 kts | 4° |
| 2026-04-24 03:25 | 52.44250 | -3.34520 | 24371 ft | 343 kts | 4° |
| 2026-04-24 03:25 | 52.46679 | -3.34340 | 24372 ft | 344 kts | 4° |
| 2026-04-24 03:26 | 52.49112 | -3.34161 | 24371 ft | 344 kts | 4° |
| 2026-04-24 03:26 | 52.51522 | -3.33984 | 24270 ft | 337 kts | 4° |
| 2026-04-24 03:26 | 52.53865 | -3.33813 | 23861 ft | 335 kts | 5° |
| 2026-04-24 03:26 | 52.56232 | -3.33640 | 23423 ft | 333 kts | 5° |
| 2026-04-24 03:27 | 52.58554 | -3.33466 | 22999 ft | 331 kts | 5° |
| 2026-04-24 03:27 | 52.60905 | -3.33223 | 22559 ft | 329 kts | 8° |
| 2026-04-24 03:27 | 52.63176 | -3.32673 | 22123 ft | 327 kts | 14° |
| 2026-04-24 03:27 | 52.65404 | -3.31616 | 21703 ft | 323 kts | 20° |
| 2026-04-24 03:28 | 52.67555 | -3.30379 | 21283 ft | 322 kts | 21° |
| 2026-04-24 03:28 | 52.69687 | -3.29120 | 20868 ft | 320 kts | 21° |
| 2026-04-24 03:28 | 52.71797 | -3.27869 | 20465 ft | 319 kts | 22° |
| 2026-04-24 03:28 | 52.73935 | -3.26597 | 20366 ft | 321 kts | 22° |
| 2026-04-24 03:29 | 52.76080 | -3.25316 | 20375 ft | 328 kts | 22° |
| 2026-04-24 03:29 | 52.78274 | -3.24003 | 20367 ft | 329 kts | 22° |
| 2026-04-24 03:29 | 52.80474 | -3.22687 | 20368 ft | 327 kts | 22° |
| 2026-04-24 03:29 | 52.82621 | -3.21401 | 20371 ft | 326 kts | 22° |
| 2026-04-24 03:30 | 52.84817 | -3.20083 | 20371 ft | 327 kts | 22° |
| 2026-04-24 03:30 | 52.87002 | -3.18808 | 20370 ft | 328 kts | 19° |
| 2026-04-24 03:30 | 52.89228 | -3.17802 | 20370 ft | 329 kts | 13° |
| 2026-04-24 03:30 | 52.91521 | -3.17302 | 20372 ft | 330 kts | 6° |
| 2026-04-24 03:31 | 52.93861 | -3.17071 | 20305 ft | 324 kts | 5° |
| 2026-04-24 03:31 | 52.96150 | -3.16881 | 19927 ft | 322 kts | 5° |
| 2026-04-24 03:31 | 52.98406 | -3.16698 | 19494 ft | 321 kts | 5° |
| 2026-04-24 03:31 | 53.00664 | -3.16514 | 19080 ft | 320 kts | 5° |
| 2026-04-24 03:32 | 53.02925 | -3.16334 | 18661 ft | 318 kts | 5° |
| 2026-04-24 03:32 | 53.05187 | -3.16154 | 18242 ft | 317 kts | 5° |
| 2026-04-24 03:32 | 53.07398 | -3.15978 | 17826 ft | 316 kts | 5° |
| 2026-04-24 03:32 | 53.09647 | -3.15800 | 17407 ft | 315 kts | 5° |
| 2026-04-24 03:33 | 53.11873 | -3.15622 | 16996 ft | 313 kts | 5° |
| 2026-04-24 03:33 | 53.14056 | -3.15444 | 16590 ft | 312 kts | 4° |
| 2026-04-24 03:33 | 53.16278 | -3.15270 | 16178 ft | 310 kts | 4° |
| 2026-04-24 03:33 | 53.18476 | -3.15097 | 15774 ft | 309 kts | 4° |
| 2026-04-24 03:34 | 53.20649 | -3.14923 | 15371 ft | 307 kts | 4° |
| 2026-04-24 03:34 | 53.22824 | -3.14751 | 14968 ft | 306 kts | 4° |
| 2026-04-24 03:34 | 53.24970 | -3.14582 | 14570 ft | 304 kts | 4° |
| 2026-04-24 03:34 | 53.27104 | -3.14409 | 14177 ft | 302 kts | 4° |
| 2026-04-24 03:35 | 53.29251 | -3.14235 | 13780 ft | 300 kts | 4° |
| 2026-04-24 03:35 | 53.31341 | -3.14071 | 13394 ft | 299 kts | 4° |
| 2026-04-24 03:35 | 53.33448 | -3.13905 | 13005 ft | 297 kts | 4° |
| 2026-04-24 03:35 | 53.35554 | -3.13734 | 12616 ft | 295 kts | 4° |
| 2026-04-24 03:36 | 53.37604 | -3.13185 | 12189 ft | 294 kts | 19° |
| 2026-04-24 03:36 | 53.39392 | -3.11610 | 11815 ft | 289 kts | 40° |
| 2026-04-24 03:36 | 53.40722 | -3.09056 | 11463 ft | 285 kts | 58° |
| 2026-04-24 03:36 | 53.41753 | -3.06177 | 11100 ft | 283 kts | 61° |
| 2026-04-24 03:37 | 53.42738 | -3.03302 | 10735 ft | 281 kts | 61° |
| 2026-04-24 03:37 | 53.43724 | -3.00434 | 10402 ft | 278 kts | 60° |
| 2026-04-24 03:37 | 53.44696 | -2.97622 | 10286 ft | 267 kts | 61° |
| 2026-04-24 03:37 | 53.45628 | -2.94920 | 9935 ft | 267 kts | 61° |
| 2026-04-24 03:38 | 53.46575 | -2.92179 | 9568 ft | 266 kts | 61° |
| 2026-04-24 03:38 | 53.47522 | -2.89435 | 9232 ft | 265 kts | 61° |
| 2026-04-24 03:38 | 53.48445 | -2.86759 | 8903 ft | 263 kts | 61° |
| 2026-04-24 03:38 | 53.49375 | -2.84058 | 8571 ft | 262 kts | 61° |
| 2026-04-24 03:39 | 53.50285 | -2.81407 | 8247 ft | 260 kts | 61° |
| 2026-04-24 03:39 | 53.51203 | -2.78704 | 7906 ft | 259 kts | 64° |
| 2026-04-24 03:39 | 53.51754 | -2.75852 | 7576 ft | 255 kts | 85° |
| 2026-04-24 03:39 | 53.51521 | -2.72900 | 7390 ft | 246 kts | 111° |
| 2026-04-24 03:40 | 53.50658 | -2.70459 | 7190 ft | 242 kts | 132° |
| 2026-04-24 03:40 | 53.49298 | -2.68773 | 6861 ft | 242 kts | 155° |
| 2026-04-24 03:40 | 53.47705 | -2.67831 | 6602 ft | 240 kts | 161° |
| 2026-04-24 03:40 | 53.46078 | -2.66986 | 6286 ft | 240 kts | 161° |
| 2026-04-24 03:41 | 53.44486 | -2.66150 | 6005 ft | 238 kts | 161° |
| 2026-04-24 03:41 | 53.42887 | -2.65298 | 5740 ft | 236 kts | 161° |
| 2026-04-24 03:41 | 53.41338 | -2.64470 | 5425 ft | 233 kts | 161° |
| 2026-04-24 03:41 | 53.39746 | -2.63618 | 4856 ft | 237 kts | 161° |
| 2026-04-24 03:42 | 53.38182 | -2.62782 | 4304 ft | 232 kts | 160° |
| 2026-04-24 03:42 | 53.36645 | -2.61961 | 3978 ft | 219 kts | 160° |
| 2026-04-24 03:42 | 53.35216 | -2.61198 | 3743 ft | 204 kts | 160° |
| 2026-04-24 03:42 | 53.33914 | -2.60502 | 3728 ft | 182 kts | 160° |
| 2026-04-24 03:43 | 53.32734 | -2.59871 | 3601 ft | 167 kts | 160° |
| 2026-04-24 03:43 | 53.31644 | -2.59289 | 3569 ft | 159 kts | 159° |
| 2026-04-24 03:43 | 53.30572 | -2.58716 | 3522 ft | 159 kts | 159° |
| 2026-04-24 03:43 | 53.29485 | -2.58134 | 3463 ft | 159 kts | 159° |
| 2026-04-24 03:44 | 53.28422 | -2.57567 | 3410 ft | 159 kts | 159° |
| 2026-04-24 03:44 | 53.27354 | -2.56998 | 3356 ft | 158 kts | 159° |
| 2026-04-24 03:44 | 53.26273 | -2.56422 | 3300 ft | 158 kts | 159° |
| 2026-04-24 03:44 | 53.25223 | -2.55866 | 3255 ft | 157 kts | 159° |
| 2026-04-24 03:45 | 53.24155 | -2.55275 | 3201 ft | 155 kts | 154° |
| 2026-04-24 03:45 | 53.23328 | -2.54158 | 2953 ft | 152 kts | 118° |
| 2026-04-24 03:45 | 53.23120 | -2.52408 | 3026 ft | 157 kts | 83° |
| 2026-04-24 03:45 | 53.23653 | -2.50724 | 3003 ft | 164 kts | 54° |
| 2026-04-24 03:46 | 53.24382 | -2.49228 | 2983 ft | 165 kts | 54° |
| 2026-04-24 03:46 | 53.25119 | -2.47710 | 2772 ft | 163 kts | 54° |
| 2026-04-24 03:46 | 53.25838 | -2.46235 | 2578 ft | 161 kts | 53° |
| 2026-04-24 03:46 | 53.26547 | -2.44777 | 2353 ft | 153 kts | 53° |
| 2026-04-24 03:47 | 53.27223 | -2.43387 | 2139 ft | 150 kts | 53° |
| 2026-04-24 03:47 | 53.27884 | -2.42028 | 1964 ft | 146 kts | 53° |
| 2026-04-24 03:47 | 53.28528 | -2.40702 | 1741 ft | 143 kts | 53° |
| 2026-04-24 03:47 | 53.29161 | -2.39399 | 1545 ft | 144 kts | 50° |
| 2026-04-24 03:48 | 53.29808 | -2.38064 | 1345 ft | 144 kts | 50° |
| 2026-04-24 03:48 | 53.30444 | -2.36754 | 1149 ft | 143 kts | 50° |
| 2026-04-24 03:48 | 53.31086 | -2.35429 | 923 ft | 144 kts | 49° |
| 2026-04-24 03:48 | 53.31710 | -2.34135 | 746 ft | 141 kts | 51° |
| 2026-04-24 03:49 | 53.32322 | -2.32845 | 564 ft | 139 kts | 52° |
| 2026-04-24 03:49 | 53.32951 | -2.31583 | 379 ft | 140 kts | 50° |
| 2026-04-24 03:49 | 53.33558 | -2.30355 | 259 ft | 120 kts | 51° |
| 2026-04-24 03:49 | 53.33948 | -2.29527 | 259 ft | 70 kts | 51° |
| 2026-04-24 03:50 | 53.34238 | -2.28927 | 259 ft | 61 kts | 52° |
| 2026-04-24 03:50 | 53.34491 | -2.28398 | 259 ft | 52 kts | 51° |
| 2026-04-24 03:50 | 53.34705 | -2.27953 | 259 ft | 45 kts | 52° |
| 2026-04-24 03:50 | 53.34905 | -2.27537 | 259 ft | 44 kts | 51° |
| 2026-04-24 03:51 | 53.35038 | -2.27297 | 259 ft | 14 kts | 29° |
| 2026-04-24 03:51 | 53.35123 | -2.27253 | 259 ft | 11 kts | 12° |
| 2026-04-24 03:51 | 53.35207 | -2.27230 | 259 ft | 12 kts | 10° |
| 2026-04-24 03:51 | 53.35297 | -2.27183 | 259 ft | 12 kts | 40° |
| 2026-04-24 03:52 | 53.35354 | -2.27076 | 259 ft | 12 kts | 51° |
| 2026-04-24 03:52 | 53.35415 | -2.26948 | 259 ft | 14 kts | 51° |
| 2026-04-24 03:52 | 53.35473 | -2.26892 | 259 ft | 10 kts | 347° |
| 2026-04-24 03:52 | 53.35541 | -2.26970 | 259 ft | 13 kts | 322° |
| 2026-04-24 03:53 | 53.35623 | -2.27080 | 259 ft | 15 kts | 321° |
| 2026-04-24 03:53 | 53.35708 | -2.27193 | 259 ft | 14 kts | 321° |
| 2026-04-24 03:53 | 53.35766 | -2.27270 | 259 ft | 6 kts | 325° |
| 2026-04-24 03:53 | 53.35803 | -2.27277 | 259 ft | 5 kts | 29° |
| 2026-04-24 03:54 | 53.35829 | -2.27230 | 259 ft | 5 kts | 38° |
| 2026-04-24 03:54 | 53.35870 | -2.27217 | 259 ft | 6 kts | 359° |
| 2026-04-24 03:54 | 53.35914 | -2.27228 | 259 ft | 6 kts | 348° |
| 2026-04-24 03:54 | 53.35942 | -2.27232 | 259 ft | 0 kts | 13° |
| 2026-04-24 03:55 | 53.35943 | -2.27229 | 259 ft | 0 kts | 54° |
| 2026-04-24 03:55 | 53.35947 | -2.27201 | 259 ft | 5 kts | 77° |
| 2026-04-24 03:55 | 53.35950 | -2.27158 | 259 ft | 2 kts | 85° |
| 2026-04-24 03:55 | 53.35951 | -2.27135 | 259 ft | 1 kts | 89° |
| 2026-04-24 03:56 | 53.35951 | -2.27130 | 259 ft | 0 kts | 88° |